createdAt,value
2022-08-12T00:01:07.090Z,2.10
2022-08-12T00:03:53.478Z,2.40
2022-08-12T00:06:40.415Z,2.50
2022-08-12T00:09:27.110Z,2.60
2022-08-12T00:12:13.733Z,2.20
2022-08-12T00:15:01.453Z,2.40
2022-08-12T00:17:48.168Z,2.20
2022-08-12T00:20:34.676Z,2.40
2022-08-12T00:23:20.845Z,2.40
2022-08-12T00:26:23.717Z,2.30
2022-08-12T00:29:14.252Z,2.30
2022-08-12T00:32:01.646Z,2.00
2022-08-12T00:34:51.532Z,2.20
2022-08-12T00:37:41.620Z,2.40
2022-08-12T00:40:29.989Z,2.10
2022-08-12T00:42:58.147Z,2.30
2022-08-12T00:45:26.550Z,2.50
2022-08-12T00:47:54.384Z,2.60
2022-08-12T00:50:22.809Z,2.30
2022-08-12T00:52:52.586Z,2.50
2022-08-12T00:55:20.771Z,2.30
2022-08-12T00:57:50.288Z,2.40
2022-08-12T01:00:21.989Z,2.20
2022-08-12T01:02:52.982Z,2.00
2022-08-12T01:05:44.200Z,1.90
2022-08-12T01:08:50.570Z,2.30
2022-08-12T01:11:33.271Z,2.20
2022-08-12T01:14:01.783Z,2.30
2022-08-12T01:16:29.608Z,2.30
2022-08-12T01:18:58.181Z,2.50
2022-08-12T01:21:28.511Z,2.60
2022-08-12T01:24:29.636Z,2.90
2022-08-12T01:26:55.366Z,2.90
2022-08-12T01:29:33.231Z,2.50
2022-08-12T01:32:05.740Z,2.70
2022-08-12T01:34:37.765Z,2.30
2022-08-12T01:37:07.901Z,2.00
2022-08-12T01:40:34.535Z,2.50
2022-08-12T01:42:59.411Z,2.30
2022-08-12T01:45:29.875Z,2.20
2022-08-12T01:48:22.969Z,2.40
2022-08-12T01:51:09.161Z,2.30
2022-08-12T01:54:05.070Z,2.20
2022-08-12T01:57:00.187Z,2.30
2022-08-12T01:59:53.969Z,2.20
2022-08-12T02:02:31.132Z,2.30
2022-08-12T02:05:35.370Z,2.20
2022-08-12T02:08:27.501Z,1.90
2022-08-12T02:11:23.475Z,2.80
2022-08-12T02:13:57.625Z,2.20
2022-08-12T02:16:46.407Z,2.70
2022-08-12T02:19:53.781Z,2.30
2022-08-12T02:22:24.073Z,2.70
2022-08-12T02:24:51.460Z,2.40
2022-08-12T02:27:20.146Z,2.20
2022-08-12T02:29:48.748Z,2.70
2022-08-12T02:32:16.782Z,2.70
2022-08-12T02:34:45.187Z,3.10
2022-08-12T02:37:15.918Z,2.80
2022-08-12T02:39:48.896Z,2.40
2022-08-12T02:42:17.867Z,2.30
2022-08-12T02:44:45.987Z,2.50
2022-08-12T02:47:56.590Z,2.00
2022-08-12T02:50:04.578Z,2.30
2022-08-12T02:52:33.841Z,2.40
2022-08-12T02:55:33.966Z,2.20
2022-08-12T02:58:06.917Z,2.60
2022-08-12T03:00:38.423Z,2.60
2022-08-12T03:03:09.530Z,2.90
2022-08-12T03:05:44.130Z,2.60
2022-08-12T03:08:29.880Z,2.40
2022-08-12T03:11:14.287Z,2.80
2022-08-12T03:13:44.848Z,2.40
2022-08-12T03:16:12.386Z,2.70
2022-08-12T03:18:46.415Z,2.80
2022-08-12T03:21:17.508Z,3.00
2022-08-12T03:24:06.609Z,2.50
2022-08-12T03:26:36.543Z,2.40
2022-08-12T03:29:07.767Z,2.50
2022-08-12T03:31:35.127Z,2.20
2022-08-12T03:34:14.888Z,2.20
2022-08-12T03:36:43.366Z,1.80
2022-08-12T03:39:15.802Z,2.60
2022-08-12T03:42:00.503Z,2.60
2022-08-12T03:45:25.607Z,2.50
2022-08-12T03:48:18.636Z,2.70
2022-08-12T03:51:06.592Z,2.60
2022-08-12T03:53:53.011Z,2.70
2022-08-12T03:56:38.995Z,2.20
2022-08-12T03:59:26.528Z,2.70
2022-08-12T04:01:58.368Z,2.30
2022-08-12T04:04:34.387Z,2.50
2022-08-12T04:07:03.903Z,2.30
2022-08-12T04:09:31.280Z,3.30
2022-08-12T04:12:17.475Z,3.40
2022-08-12T04:14:44.730Z,3.30
2022-08-12T04:17:12.607Z,3.70
2022-08-12T04:19:40.487Z,3.20
2022-08-12T04:22:07.603Z,3.20
2022-08-12T04:24:36.427Z,4.00
2022-08-12T04:27:09.077Z,3.40
2022-08-12T04:30:30.779Z,3.50
2022-08-12T04:32:28.387Z,3.50
2022-08-12T04:34:56.019Z,3.70
2022-08-12T04:37:23.686Z,3.30
2022-08-12T04:39:52.390Z,3.70
2022-08-12T04:42:20.661Z,3.50
2022-08-12T04:44:48.982Z,3.80
2022-08-12T04:47:17.220Z,3.10
2022-08-12T04:49:46.758Z,3.60
2022-08-12T04:52:14.463Z,3.20
2022-08-12T04:54:44.406Z,3.10
2022-08-12T04:57:11.867Z,2.90
2022-08-12T04:59:43.670Z,2.90
2022-08-12T05:02:17.185Z,2.90
2022-08-12T05:04:52.820Z,3.00
2022-08-12T05:07:21.124Z,3.50
2022-08-12T05:09:59.745Z,3.30
2022-08-12T05:12:37.011Z,3.40
2022-08-12T05:15:19.020Z,2.90
2022-08-12T05:17:54.376Z,2.90
2022-08-12T05:20:23.007Z,2.90
2022-08-12T05:22:53.077Z,2.60
2022-08-12T05:25:25.861Z,2.50
2022-08-12T05:27:58.246Z,3.00
2022-08-12T05:30:34.078Z,2.70
2022-08-12T05:33:05.633Z,2.90
2022-08-12T05:35:37.340Z,2.70
2022-08-12T05:38:24.001Z,2.50
2022-08-12T05:40:51.767Z,2.80
2022-08-12T05:43:20.668Z,2.80
2022-08-12T05:45:49.766Z,2.40
2022-08-12T05:48:17.669Z,2.40
2022-08-12T05:50:46.106Z,2.70
2022-08-12T05:53:14.087Z,2.50
2022-08-12T05:55:41.841Z,2.30
2022-08-12T05:58:09.508Z,2.90
2022-08-12T06:00:37.360Z,2.50
2022-08-12T06:03:06.453Z,2.40
2022-08-12T06:05:42.990Z,2.70
2022-08-12T06:08:24.408Z,2.70
2022-08-12T06:10:51.669Z,2.30
2022-08-12T06:13:28.260Z,2.60
2022-08-12T06:16:07.691Z,2.40
2022-08-12T06:18:35.433Z,2.40
2022-08-12T06:21:03.207Z,3.00
2022-08-12T06:23:30.667Z,2.60
2022-08-12T06:25:59.041Z,2.50
2022-08-12T06:28:26.908Z,2.30
2022-08-12T06:31:25.267Z,2.80
2022-08-12T06:34:00.661Z,2.40
2022-08-12T06:36:33.880Z,2.80
2022-08-12T06:39:01.375Z,2.70
2022-08-12T06:42:04.922Z,2.50
2022-08-12T06:44:35.207Z,2.10
2022-08-12T06:47:02.468Z,2.10
2022-08-12T06:49:35.236Z,2.20
2022-08-12T06:52:04.817Z,2.80
2022-08-12T06:54:34.057Z,2.40
2022-08-12T06:57:58.139Z,2.10
2022-08-12T06:59:50.755Z,2.20
2022-08-12T07:02:20.177Z,2.20
2022-08-12T07:04:48.669Z,1.90
2022-08-12T07:07:16.748Z,2.00
2022-08-12T07:10:04.214Z,2.20
2022-08-12T07:12:32.130Z,2.10
2022-08-12T07:15:02.286Z,2.10
2022-08-12T07:17:38.177Z,2.20
2022-08-12T07:20:08.630Z,2.50
2022-08-12T07:22:36.085Z,2.50
2022-08-12T07:25:22.356Z,2.40
2022-08-12T07:27:54.233Z,2.20
2022-08-12T07:30:23.476Z,2.10
2022-08-12T07:32:51.896Z,2.20
2022-08-12T07:35:20.743Z,1.90
2022-08-12T07:37:50.717Z,2.20
2022-08-12T07:40:19.307Z,2.10
2022-08-12T07:42:47.389Z,2.20
2022-08-12T07:45:15.027Z,2.20
2022-08-12T07:47:43.785Z,2.20
2022-08-12T07:50:22.966Z,2.30
2022-08-12T07:52:51.323Z,2.00
2022-08-12T07:55:19.739Z,2.10
2022-08-12T07:57:58.132Z,1.90
2022-08-12T08:00:32.968Z,1.70
2022-08-12T08:03:01.028Z,2.20
2022-08-12T08:05:36.080Z,2.00
2022-08-12T08:08:13.647Z,2.10
2022-08-12T08:10:41.222Z,1.70
2022-08-12T08:13:09.287Z,2.10
2022-08-12T08:16:02.961Z,2.20
2022-08-12T08:18:27.532Z,2.10
2022-08-12T08:20:56.147Z,1.80
2022-08-12T08:23:29.445Z,1.90
2022-08-12T08:26:02.727Z,1.90
2022-08-12T08:28:30.069Z,1.80
2022-08-12T08:30:57.652Z,2.00
2022-08-12T08:34:04.300Z,1.90
2022-08-12T08:36:16.233Z,1.90
2022-08-12T08:38:53.240Z,1.90
2022-08-12T08:42:18.804Z,1.80
2022-08-12T08:44:38.687Z,1.60
2022-08-12T08:47:07.129Z,1.50
2022-08-12T08:49:37.593Z,2.00
2022-08-12T08:52:10.361Z,1.90
2022-08-12T08:54:38.095Z,2.10
2022-08-12T08:57:08.413Z,1.80
2022-08-12T08:59:36.009Z,1.90
2022-08-12T09:02:04.538Z,1.60
2022-08-12T09:05:11.779Z,1.80
2022-08-12T09:07:50.985Z,2.10
2022-08-12T09:10:15.596Z,1.90
2022-08-12T09:16:06.829Z,2.00
2022-08-12T09:18:35.327Z,2.00
2022-08-12T09:21:06.414Z,1.70
2022-08-12T09:23:59.615Z,1.80
2022-08-12T09:26:28.417Z,1.70
2022-08-12T09:28:58.014Z,2.10
2022-08-12T09:32:06.913Z,2.00
2022-08-12T09:34:27.409Z,1.70
2022-08-12T09:37:19.312Z,1.70
2022-08-12T09:40:02.465Z,1.80
2022-08-12T09:43:15.382Z,2.00
2022-08-12T09:46:11.851Z,2.00
2022-08-12T09:48:36.161Z,2.10
2022-08-12T09:51:04.929Z,1.80
2022-08-12T09:53:45.706Z,1.90
2022-08-12T09:56:59.026Z,2.20
2022-08-12T10:00:15.533Z,2.10
2022-08-12T10:02:45.465Z,2.30
2022-08-12T10:04:58.566Z,2.20
2022-08-12T10:07:28.662Z,2.40
2022-08-12T10:10:08.149Z,2.10
2022-08-12T10:13:13.386Z,2.00
2022-08-12T10:16:02.084Z,1.90
2022-08-12T10:18:35.688Z,2.10
2022-08-12T10:21:11.834Z,2.00
2022-08-12T10:23:45.851Z,1.80
2022-08-12T10:26:39.138Z,2.10
2022-08-12T10:30:37.613Z,2.10
2022-08-12T10:32:44.605Z,1.80
2022-08-12T10:35:09.925Z,1.90
2022-08-12T10:38:34.556Z,2.40
2022-08-12T10:40:31.001Z,2.00
2022-08-12T10:43:19.666Z,2.10
2022-08-12T10:45:50.039Z,2.00
2022-08-12T10:48:27.127Z,2.00
2022-08-12T10:51:51.763Z,1.80
2022-08-12T10:54:00.487Z,2.00
2022-08-12T10:56:34.947Z,1.90
2022-08-12T10:59:10.461Z,2.10
2022-08-12T11:04:16.832Z,2.20
2022-08-12T11:04:44.789Z,2.00
2022-08-12T11:08:33.860Z,1.70
2022-08-12T11:10:04.636Z,1.90
2022-08-12T11:12:55.712Z,2.00
2022-08-12T11:15:32.801Z,2.20
2022-08-12T11:18:17.859Z,2.20
2022-08-12T11:20:48.734Z,2.10
2022-08-12T11:23:25.003Z,2.20
2022-08-12T11:26:06.166Z,1.70
2022-08-12T11:28:37.364Z,1.80
2022-08-12T11:31:14.202Z,2.00
2022-08-12T11:34:04.408Z,1.90
2022-08-12T11:36:31.321Z,1.90
2022-08-12T11:39:01.261Z,2.00
2022-08-12T11:41:39.759Z,2.10
2022-08-12T11:44:36.828Z,1.80
2022-08-12T11:46:59.553Z,1.90
2022-08-12T11:49:32.411Z,1.90
2022-08-12T11:52:01.731Z,2.00
2022-08-12T11:54:30.067Z,2.10
2022-08-12T11:57:00.487Z,2.40
2022-08-12T12:02:20.863Z,1.70
2022-08-12T12:04:52.295Z,2.30
2022-08-12T12:08:36.422Z,1.90
2022-08-12T12:10:15.492Z,2.10
2022-08-12T12:12:49.646Z,2.10
2022-08-12T12:15:25.149Z,2.00
2022-08-12T12:18:06.432Z,1.70
2022-08-12T12:20:35.513Z,1.80
2022-08-12T12:23:03.785Z,1.80
2022-08-12T12:26:06.451Z,1.90
2022-08-12T12:28:37.131Z,1.80
2022-08-12T12:31:15.177Z,2.00
2022-08-12T12:33:56.927Z,1.80
2022-08-12T12:36:30.798Z,2.00
2022-08-12T12:39:00.260Z,2.00
2022-08-12T12:42:42.865Z,2.00
2022-08-12T12:44:29.230Z,1.80
2022-08-12T12:47:03.761Z,2.00
2022-08-12T12:49:53.547Z,2.20
2022-08-12T12:52:21.466Z,1.80
2022-08-12T12:54:59.103Z,1.80
2022-08-12T12:57:36.262Z,2.30
2022-08-12T13:00:16.231Z,1.90
2022-08-12T13:02:53.946Z,1.90
2022-08-12T13:05:30.136Z,2.00
2022-08-12T13:08:28.510Z,2.00
2022-08-12T13:11:05.146Z,1.90
2022-08-12T13:14:10.536Z,2.30
2022-08-12T13:16:26.962Z,2.10
2022-08-12T13:18:56.993Z,2.30
2022-08-12T13:21:33.323Z,2.00
2022-08-12T13:24:10.506Z,2.20
2022-08-12T13:26:40.801Z,2.30
2022-08-12T13:29:11.199Z,2.20
2022-08-12T13:32:13.313Z,2.00
2022-08-12T13:34:33.282Z,2.10
2022-08-12T13:37:09.209Z,2.10
2022-08-12T13:39:39.138Z,2.10
2022-08-12T13:42:14.291Z,2.30
2022-08-12T13:44:42.781Z,2.30
2022-08-12T13:47:18.520Z,2.50
2022-08-12T13:49:55.660Z,2.30
2022-08-12T13:52:24.291Z,2.60
2022-08-12T13:54:54.162Z,2.00
2022-08-12T13:57:23.902Z,2.30
2022-08-12T13:59:55.547Z,2.50
2022-08-12T14:02:24.511Z,2.40
2022-08-12T14:04:56.361Z,2.50
2022-08-12T14:07:25.833Z,2.20
2022-08-12T14:10:16.258Z,2.40
2022-08-12T14:12:54.100Z,2.20
2022-08-12T14:15:37.084Z,2.40
2022-08-12T14:18:17.533Z,2.40
2022-08-12T14:20:48.437Z,2.70
2022-08-12T14:24:04.792Z,2.30
2022-08-12T14:26:12.110Z,2.40
2022-08-12T14:28:45.418Z,2.30
2022-08-12T14:31:31.793Z,2.60
2022-08-12T14:34:00.104Z,2.50
2022-08-12T14:36:32.995Z,2.10
2022-08-12T14:39:05.354Z,2.10
2022-08-12T14:41:36.653Z,2.30
2022-08-12T14:44:57.287Z,2.10
2022-08-12T14:47:07.979Z,2.20
2022-08-12T14:50:33.997Z,2.00
2022-08-12T14:53:15.380Z,2.00
2022-08-12T14:58:02.449Z,2.30
2022-08-12T15:00:52.319Z,1.70
2022-08-12T15:03:52.731Z,2.10
2022-08-12T15:06:44.183Z,1.90
2022-08-12T15:09:12.484Z,2.30
2022-08-12T15:11:55.725Z,1.70
2022-08-12T15:14:30.285Z,1.80
2022-08-12T15:17:00.751Z,2.60
2022-08-12T15:20:11.241Z,2.30
2022-08-12T15:22:38.383Z,2.20
2022-08-12T15:25:07.965Z,2.10
2022-08-12T15:28:04.373Z,2.20
2022-08-12T15:30:31.914Z,2.30
2022-08-12T15:32:59.944Z,2.00
2022-08-12T15:35:31.229Z,2.30
2022-08-12T15:38:19.271Z,2.20
2022-08-12T15:40:52.801Z,1.90
2022-08-12T15:44:15.939Z,2.00
2022-08-12T15:46:15.854Z,2.30
2022-08-12T15:48:47.617Z,2.20
2022-08-12T15:51:58.398Z,2.30
2022-08-12T15:54:34.486Z,2.30
2022-08-12T15:57:08.141Z,2.20
2022-08-12T16:00:00.731Z,2.50
2022-08-12T16:02:29.405Z,2.20
2022-08-12T16:04:57.856Z,2.70
2022-08-12T16:07:30.248Z,2.50
2022-08-12T16:10:06.796Z,2.40
2022-08-12T16:12:54.699Z,2.10
2022-08-12T16:15:26.319Z,2.00
2022-08-12T16:18:18.974Z,2.20
2022-08-12T16:20:46.680Z,2.10
2022-08-12T16:23:36.043Z,2.30
2022-08-12T16:26:14.930Z,2.40
2022-08-12T16:28:44.353Z,2.30
2022-08-12T16:31:22.571Z,2.50
2022-08-12T16:33:59.089Z,2.90
2022-08-12T16:36:29.965Z,3.10
2022-08-12T16:39:01.497Z,2.80
2022-08-12T16:41:33.401Z,2.80
2022-08-12T16:44:09.254Z,2.80
2022-08-12T16:46:37.954Z,3.00
2022-08-12T16:49:13.437Z,3.20
2022-08-12T16:51:46.900Z,3.00
2022-08-12T16:54:18.839Z,3.20
2022-08-12T16:56:54.890Z,3.00
2022-08-12T16:59:30.813Z,3.10
2022-08-12T17:01:59.020Z,3.40
2022-08-12T17:04:28.225Z,3.30
2022-08-12T17:06:55.925Z,3.50
2022-08-12T17:09:25.330Z,3.20
2022-08-12T17:11:53.469Z,3.00
2022-08-12T17:14:23.508Z,3.30
2022-08-12T17:16:55.825Z,3.20
2022-08-12T17:20:28.627Z,2.90
2022-08-12T17:22:15.572Z,3.10
2022-08-12T17:24:54.490Z,3.50
2022-08-12T17:27:22.970Z,3.60
2022-08-12T17:30:02.257Z,3.50
2022-08-12T17:32:33.877Z,3.80
2022-08-12T17:35:21.384Z,3.60
2022-08-12T17:37:54.565Z,3.60
2022-08-12T17:40:35.585Z,3.70
2022-08-12T17:43:57.393Z,3.20
2022-08-12T17:45:58.882Z,3.20
2022-08-12T17:48:34.360Z,3.40
2022-08-12T17:51:08.313Z,3.20
2022-08-12T17:54:06.093Z,2.90
2022-08-12T17:56:28.466Z,3.00
2022-08-12T17:59:00.989Z,3.00
2022-08-12T18:01:29.437Z,3.20
2022-08-12T18:04:20.234Z,3.00
2022-08-12T18:06:51.301Z,3.30
2022-08-12T18:09:20.122Z,3.40
2022-08-12T18:12:08.135Z,3.10
2022-08-12T18:14:37.980Z,3.20
2022-08-12T18:17:08.434Z,3.10
2022-08-12T18:20:06.636Z,3.60
2022-08-12T18:22:29.099Z,3.00
2022-08-12T18:25:05.569Z,3.20
2022-08-12T18:27:44.107Z,3.20
2022-08-12T18:30:20.276Z,3.40
2022-08-12T18:33:04.489Z,3.60
2022-08-12T18:35:47.639Z,3.20
2022-08-12T18:38:24.530Z,3.20
2022-08-12T18:41:21.777Z,3.20
2022-08-12T18:44:04.358Z,3.50
2022-08-12T18:46:53.973Z,3.40
2022-08-12T18:49:29.712Z,3.20
2022-08-12T18:52:04.609Z,3.30
2022-08-12T18:54:41.602Z,3.20
2022-08-12T18:57:46.088Z,3.30
2022-08-12T19:00:07.796Z,3.50
2022-08-12T19:02:40.456Z,3.40
2022-08-12T19:05:11.352Z,3.20
2022-08-12T19:07:49.354Z,3.50
2022-08-12T19:10:26.427Z,3.40
2022-08-12T19:13:18.532Z,4.20
2022-08-12T19:15:57.781Z,3.40
2022-08-12T19:18:30.825Z,3.50
2022-08-12T19:21:12.058Z,3.30
2022-08-12T19:23:46.371Z,3.40
2022-08-12T19:26:14.718Z,4.00
2022-08-12T19:28:43.660Z,3.10
2022-08-12T19:31:58.480Z,3.10
2022-08-12T19:35:32.849Z,3.70
2022-08-12T19:38:02.848Z,3.80
2022-08-12T19:40:31.376Z,4.30
2022-08-12T19:43:19.926Z,3.90
2022-08-12T19:45:56.491Z,4.00
2022-08-12T19:48:30.457Z,4.10
2022-08-12T19:50:58.859Z,4.20
2022-08-12T19:53:57.035Z,4.40
2022-08-12T19:56:25.197Z,4.40
2022-08-12T19:58:53.293Z,4.30
2022-08-12T20:01:22.319Z,4.40
2022-08-12T20:03:57.667Z,4.20
2022-08-12T20:06:33.913Z,4.50
2022-08-12T20:09:02.160Z,3.90
2022-08-12T20:12:15.109Z,4.10
2022-08-12T20:14:19.664Z,4.40
2022-08-12T20:16:57.394Z,4.10
2022-08-12T20:20:01.650Z,4.20
2022-08-12T20:22:24.090Z,4.40
2022-08-12T20:25:02.280Z,4.40
2022-08-12T20:28:04.251Z,4.40
2022-08-12T20:30:52.555Z,4.50
2022-08-12T20:33:17.735Z,5.20
2022-08-12T20:36:06.408Z,4.90
2022-08-12T20:38:40.162Z,4.60
2022-08-12T20:41:16.102Z,4.70
2022-08-12T20:43:45.401Z,5.10
2022-08-12T20:46:14.057Z,4.60
2022-08-12T20:48:44.583Z,4.80
2022-08-12T20:51:19.128Z,4.70
2022-08-12T20:53:58.614Z,4.30
2022-08-12T20:56:37.817Z,5.10
2022-08-12T20:59:14.848Z,5.00
2022-08-12T21:01:48.490Z,5.10
2022-08-12T21:04:36.961Z,5.50
2022-08-12T21:07:09.038Z,5.70
2022-08-12T21:09:49.238Z,5.40
2022-08-12T21:12:31.565Z,5.20
2022-08-12T21:15:22.975Z,5.30
2022-08-12T21:18:12.002Z,5.10
2022-08-12T21:20:53.205Z,5.80
2022-08-12T21:23:22.963Z,5.60
2022-08-12T21:25:54.187Z,5.50
2022-08-12T21:28:22.959Z,5.00
2022-08-12T21:32:34.658Z,5.80
2022-08-12T21:34:08.089Z,5.70
2022-08-12T21:36:35.567Z,6.00
2022-08-12T21:39:19.141Z,5.90
2022-08-12T21:41:54.375Z,6.00
2022-08-12T21:45:44.114Z,6.00
2022-08-12T21:47:20.934Z,6.20
2022-08-12T21:50:06.723Z,6.20
2022-08-12T21:52:37.597Z,6.30
2022-08-12T21:55:18.261Z,6.40
2022-08-12T21:57:53.880Z,6.20
2022-08-12T22:00:32.018Z,5.70
2022-08-12T22:04:02.205Z,6.20
2022-08-12T22:06:31.807Z,6.40
2022-08-12T22:09:17.179Z,6.80
2022-08-12T22:11:56.240Z,6.60
2022-08-12T22:14:26.815Z,6.50
2022-08-12T22:16:55.696Z,6.20
2022-08-12T22:19:23.678Z,6.20
2022-08-12T22:21:53.838Z,6.10
2022-08-12T22:24:26.468Z,5.90
2022-08-12T22:26:59.103Z,6.40
2022-08-12T22:29:45.179Z,6.90
2022-08-12T22:32:15.729Z,6.70
2022-08-12T22:34:44.873Z,6.60
2022-08-12T22:37:19.838Z,6.90
2022-08-12T22:39:49.140Z,6.90
2022-08-12T22:42:36.359Z,6.80
2022-08-12T22:45:23.606Z,6.90
2022-08-12T22:47:55.588Z,7.40
2022-08-12T22:50:29.528Z,7.60
2022-08-12T22:53:17.492Z,6.80
2022-08-12T22:56:05.912Z,7.00
2022-08-12T22:58:34.227Z,6.90
2022-08-12T23:01:03.312Z,7.20
2022-08-12T23:03:46.988Z,7.30
2022-08-12T23:06:17.500Z,7.40
2022-08-12T23:08:46.772Z,7.20
2022-08-12T23:11:16.049Z,7.30
2022-08-12T23:13:55.123Z,7.50
2022-08-12T23:16:31.636Z,7.60
2022-08-12T23:19:17.869Z,7.90
2022-08-12T23:22:06.018Z,8.00
2022-08-12T23:24:54.005Z,7.20
2022-08-12T23:27:51.914Z,7.80
2022-08-12T23:30:31.737Z,7.80
2022-08-12T23:33:19.896Z,8.20
2022-08-12T23:35:59.263Z,7.60
2022-08-12T23:38:32.579Z,7.90
2022-08-12T23:41:02.347Z,7.70
2022-08-12T23:43:40.773Z,7.90
2022-08-12T23:46:19.511Z,7.70
2022-08-12T23:48:50.401Z,7.50
2022-08-12T23:51:32.161Z,7.90
2022-08-12T23:54:07.523Z,7.70
2022-08-12T23:56:36.331Z,7.70
2022-08-12T23:59:05.358Z,8.40
